createdAt,value
2023-03-07T00:00:10.932Z,83
2023-03-07T00:01:17.974Z,83
2023-03-07T00:02:25.150Z,83
2023-03-07T00:03:32.368Z,83
2023-03-07T00:04:38.768Z,83
2023-03-07T00:05:46.002Z,84
2023-03-07T00:06:52.941Z,84
2023-03-07T00:08:00.009Z,84
2023-03-07T00:09:07.114Z,84
2023-03-07T00:10:14.311Z,84
2023-03-07T00:11:20.860Z,84
2023-03-07T00:12:27.973Z,84
2023-03-07T00:13:35.061Z,84
2023-03-07T00:14:42.224Z,84
2023-03-07T00:15:49.388Z,84
2023-03-07T00:16:55.878Z,84
2023-03-07T00:18:02.958Z,84
2023-03-07T00:19:10.214Z,85
2023-03-07T00:20:17.277Z,85
2023-03-07T00:21:24.411Z,85
2023-03-07T00:22:30.896Z,85
2023-03-07T00:23:37.981Z,85
2023-03-07T00:24:45.117Z,85
2023-03-07T00:25:52.205Z,85
2023-03-07T00:28:05.907Z,85
2023-03-07T00:29:13.081Z,85
2023-03-07T00:30:20.223Z,85
2023-03-07T00:31:27.310Z,85
2023-03-07T00:32:34.458Z,85
2023-03-07T00:33:40.906Z,85
2023-03-07T00:35:00.404Z,85
2023-03-07T00:35:55.196Z,85
2023-03-07T00:37:02.228Z,85
2023-03-07T00:38:09.256Z,85
2023-03-07T00:39:15.920Z,85
2023-03-07T00:40:23.169Z,85
2023-03-07T00:41:30.163Z,86
2023-03-07T00:42:37.293Z,86
2023-03-07T00:43:44.308Z,86
2023-03-07T00:44:50.911Z,86
2023-03-07T00:45:58.100Z,86
2023-03-07T00:47:05.190Z,86
2023-03-07T00:49:19.425Z,86
2023-03-07T00:50:26.077Z,86
2023-03-07T00:51:33.134Z,86
2023-03-07T00:52:40.124Z,86
2023-03-07T00:53:47.291Z,86
2023-03-07T00:54:54.401Z,86
2023-03-07T00:56:00.866Z,86
2023-03-07T00:57:08.014Z,86
2023-03-07T00:58:15.160Z,86
2023-03-07T00:59:22.220Z,86
2023-03-07T01:00:29.368Z,86
2023-03-07T01:01:35.957Z,86
2023-03-07T01:02:43.096Z,86
2023-03-07T01:03:50.167Z,86
2023-03-07T01:04:57.319Z,86
2023-03-07T01:06:04.509Z,86
2023-03-07T01:07:10.979Z,86
2023-03-07T01:08:18.111Z,86
2023-03-07T01:09:25.193Z,86
2023-03-07T01:10:32.358Z,86
2023-03-07T01:11:39.396Z,86
2023-03-07T01:12:46.044Z,86
2023-03-07T01:13:53.108Z,86
2023-03-07T01:15:00.176Z,86
2023-03-07T01:16:07.314Z,86
2023-03-07T01:17:14.414Z,86
2023-03-07T01:18:20.989Z,86
2023-03-07T01:19:28.076Z,86
2023-03-07T01:20:35.257Z,86
2023-03-07T01:21:42.310Z,86
2023-03-07T01:22:48.943Z,86
2023-03-07T01:23:55.946Z,86
2023-03-07T01:25:03.109Z,86
2023-03-07T01:26:10.181Z,86
2023-03-07T01:27:17.320Z,87
2023-03-07T01:28:23.948Z,86
2023-03-07T01:29:30.983Z,86
2023-03-07T01:31:45.298Z,87
2023-03-07T01:32:52.389Z,87
2023-03-07T01:33:58.989Z,87
2023-03-07T01:35:06.012Z,87
2023-03-07T01:36:13.240Z,87
2023-03-07T01:37:20.405Z,87
2023-03-07T01:38:27.329Z,87
2023-03-07T01:39:34.503Z,87
2023-03-07T01:40:40.994Z,87
2023-03-07T01:41:48.109Z,87
2023-03-07T01:42:55.270Z,87
2023-03-07T01:44:02.374Z,87
2023-03-07T01:45:08.894Z,87
2023-03-07T01:46:16.092Z,87
2023-03-07T01:47:23.163Z,86
2023-03-07T01:48:30.269Z,86
2023-03-07T01:49:37.873Z,86
2023-03-07T01:50:43.936Z,86
2023-03-07T01:51:50.953Z,86
2023-03-07T01:52:58.174Z,86
2023-03-07T01:54:05.284Z,86
2023-03-07T01:55:12.370Z,86
2023-03-07T01:56:18.850Z,86
2023-03-07T01:57:26.095Z,86
2023-03-07T01:58:33.187Z,86
2023-03-07T01:59:40.241Z,86
2023-03-07T02:00:47.306Z,86
2023-03-07T02:01:53.971Z,86
2023-03-07T02:03:01.024Z,87
2023-03-07T02:04:08.184Z,87
2023-03-07T02:05:15.239Z,87
2023-03-07T02:06:22.301Z,87
2023-03-07T02:07:28.918Z,87
2023-03-07T02:08:36.030Z,87
2023-03-07T02:09:43.178Z,87
2023-03-07T02:10:50.256Z,87
2023-03-07T02:11:57.306Z,87
2023-03-07T02:13:04.536Z,87
2023-03-07T02:14:11.052Z,87
2023-03-07T02:15:18.078Z,87
2023-03-07T02:17:32.378Z,87
2023-03-07T02:18:38.970Z,87
2023-03-07T02:19:46.033Z,87
2023-03-07T02:20:53.177Z,87
2023-03-07T02:22:00.555Z,86
2023-03-07T02:23:07.449Z,86
2023-03-07T02:24:14.021Z,86
2023-03-07T02:25:21.087Z,86
2023-03-07T02:26:28.096Z,86
2023-03-07T02:27:35.228Z,86
2023-03-07T02:28:42.470Z,86
2023-03-07T02:29:48.951Z,86
2023-03-07T02:30:56.656Z,86
2023-03-07T02:32:03.284Z,86
2023-03-07T02:33:10.409Z,86
2023-03-07T02:35:23.996Z,86
2023-03-07T02:36:31.092Z,85
2023-03-07T02:37:38.142Z,85
2023-03-07T02:38:45.381Z,85
2023-03-07T02:39:52.382Z,85
2023-03-07T02:40:58.909Z,85
2023-03-07T02:42:06.055Z,85
2023-03-07T02:43:13.230Z,85
2023-03-07T02:44:20.214Z,85
2023-03-07T02:45:27.395Z,85
2023-03-07T02:46:34.095Z,85
2023-03-07T02:47:41.088Z,85
2023-03-07T02:48:48.261Z,85
2023-03-07T02:49:55.359Z,85
2023-03-07T02:51:02.452Z,85
2023-03-07T02:52:08.918Z,85
2023-03-07T02:53:17.344Z,85
2023-03-07T02:54:23.204Z,85
2023-03-07T02:55:30.234Z,86
2023-03-07T02:56:37.475Z,86
2023-03-07T02:57:44.001Z,86
2023-03-07T02:58:51.030Z,87
2023-03-07T02:59:58.141Z,87
2023-03-07T03:01:05.289Z,87
2023-03-07T03:02:12.515Z,87
2023-03-07T03:03:19.084Z,87
2023-03-07T03:04:26.198Z,87
2023-03-07T03:05:33.185Z,87
2023-03-07T03:06:40.326Z,87
2023-03-07T03:07:47.460Z,87
2023-03-07T03:08:54.033Z,87
2023-03-07T03:10:01.053Z,87
2023-03-07T03:11:08.235Z,87
2023-03-07T03:12:15.410Z,87
2023-03-07T03:13:22.554Z,87
2023-03-07T03:14:29.033Z,87
2023-03-07T03:15:36.160Z,87
2023-03-07T03:16:43.195Z,87
2023-03-07T03:17:50.337Z,87
2023-03-07T03:18:57.463Z,88
2023-03-07T03:20:04.013Z,88
2023-03-07T03:21:11.212Z,88
2023-03-07T03:22:18.198Z,88
2023-03-07T03:23:25.419Z,88
2023-03-07T03:24:32.453Z,88
2023-03-07T03:25:40.218Z,88
2023-03-07T03:26:46.122Z,88
2023-03-07T03:27:53.314Z,88
2023-03-07T03:29:00.332Z,88
2023-03-07T03:30:07.556Z,88
2023-03-07T03:31:14.215Z,88
2023-03-07T03:32:21.127Z,88
2023-03-07T03:33:28.313Z,88
2023-03-07T03:34:35.394Z,88
2023-03-07T03:35:42.573Z,88
2023-03-07T03:36:48.995Z,88
2023-03-07T03:39:03.289Z,88
2023-03-07T03:40:10.491Z,88
2023-03-07T03:41:17.496Z,88
2023-03-07T03:42:24.088Z,88
2023-03-07T03:43:31.212Z,88
2023-03-07T03:45:45.396Z,88
2023-03-07T03:46:52.508Z,88
2023-03-07T03:47:59.118Z,89
2023-03-07T03:49:06.218Z,89
2023-03-07T03:50:13.219Z,89
2023-03-07T03:51:20.369Z,89
2023-03-07T03:52:27.500Z,89
2023-03-07T03:53:34.209Z,89
2023-03-07T03:54:41.223Z,89
2023-03-07T03:55:48.214Z,89
2023-03-07T03:56:55.389Z,89
2023-03-07T03:58:02.502Z,89
2023-03-07T03:59:09.090Z,89
2023-03-07T04:00:16.275Z,89
2023-03-07T04:01:23.365Z,89
2023-03-07T04:02:30.723Z,89
2023-03-07T04:03:37.533Z,89
2023-03-07T04:04:44.101Z,88
2023-03-07T04:05:51.208Z,89
2023-03-07T04:06:58.242Z,89
2023-03-07T04:08:05.426Z,89
2023-03-07T04:09:12.492Z,89
2023-03-07T04:10:19.097Z,89
2023-03-07T04:11:26.175Z,88
2023-03-07T04:12:33.364Z,88
2023-03-07T04:13:40.502Z,88
2023-03-07T04:14:47.533Z,88
2023-03-07T04:15:54.128Z,88
2023-03-07T04:17:01.202Z,88
2023-03-07T04:18:08.276Z,88
2023-03-07T04:19:15.471Z,88
2023-03-07T04:20:22.040Z,88
2023-03-07T04:21:29.618Z,88
2023-03-07T04:22:36.236Z,88
2023-03-07T04:23:43.332Z,88
2023-03-07T04:24:50.487Z,88
2023-03-07T04:25:57.639Z,87
2023-03-07T04:27:04.154Z,87
2023-03-07T04:28:11.320Z,87
2023-03-07T04:29:18.272Z,87
2023-03-07T04:30:25.486Z,87
2023-03-07T04:31:32.605Z,87
2023-03-07T04:32:39.065Z,87
2023-03-07T04:33:46.273Z,87
2023-03-07T04:34:53.394Z,87
2023-03-07T04:36:00.472Z,87
2023-03-07T04:37:07.221Z,87
2023-03-07T04:38:14.140Z,87
2023-03-07T04:39:21.197Z,87
2023-03-07T04:40:28.288Z,87
2023-03-07T04:42:42.068Z,87
2023-03-07T04:43:49.122Z,87
2023-03-07T04:44:56.236Z,87
2023-03-07T04:46:03.422Z,87
2023-03-07T04:47:10.469Z,87
2023-03-07T04:48:17.162Z,87
2023-03-07T04:49:24.213Z,87
2023-03-07T04:50:31.218Z,87
2023-03-07T04:51:38.348Z,87
2023-03-07T04:52:45.474Z,87
2023-03-07T04:53:52.029Z,87
2023-03-07T04:54:59.108Z,87
2023-03-07T04:56:06.295Z,87
2023-03-07T04:57:13.331Z,87
2023-03-07T04:58:20.458Z,87
2023-03-07T04:59:27.026Z,87
2023-03-07T05:00:34.708Z,87
2023-03-07T05:01:41.361Z,87
2023-03-07T05:02:48.317Z,87
2023-03-07T05:03:55.546Z,87
2023-03-07T05:05:02.104Z,87
2023-03-07T05:06:09.194Z,87
2023-03-07T05:07:16.337Z,87
2023-03-07T05:08:23.385Z,87
2023-03-07T05:09:30.491Z,87
2023-03-07T05:10:37.071Z,87
2023-03-07T05:11:44.198Z,87
2023-03-07T05:13:58.395Z,86
2023-03-07T05:15:05.490Z,86
2023-03-07T05:16:12.260Z,86
2023-03-07T05:17:19.117Z,86
2023-03-07T05:18:26.296Z,85
2023-03-07T05:19:33.408Z,85
2023-03-07T05:20:40.492Z,85
2023-03-07T05:21:47.098Z,85
2023-03-07T05:22:54.311Z,85
2023-03-07T05:24:01.293Z,85
2023-03-07T05:25:08.507Z,85
2023-03-07T05:26:15.478Z,85
2023-03-07T05:27:22.066Z,85
2023-03-07T05:28:29.220Z,85
2023-03-07T05:29:36.274Z,85
2023-03-07T05:30:43.404Z,85
2023-03-07T05:31:50.448Z,84
2023-03-07T05:32:57.214Z,84
2023-03-07T05:34:04.154Z,84
2023-03-07T05:35:11.328Z,84
2023-03-07T05:36:18.344Z,84
2023-03-07T05:37:25.534Z,84
2023-03-07T05:38:32.212Z,84
2023-03-07T05:39:39.213Z,84
2023-03-07T05:40:46.284Z,84
2023-03-07T05:41:53.475Z,84
2023-03-07T05:43:00.573Z,85
2023-03-07T05:44:07.108Z,85
2023-03-07T05:46:21.410Z,85
2023-03-07T05:47:28.458Z,85
2023-03-07T05:48:35.595Z,85
2023-03-07T05:49:42.617Z,85
2023-03-07T05:50:49.221Z,85
2023-03-07T05:51:56.409Z,85
2023-03-07T05:53:03.416Z,85
2023-03-07T05:54:10.530Z,85
2023-03-07T05:55:17.117Z,85
2023-03-07T05:56:24.285Z,85
2023-03-07T05:57:31.285Z,85
2023-03-07T05:58:38.548Z,85
2023-03-07T05:59:45.601Z,85
2023-03-07T06:00:52.206Z,85
2023-03-07T06:01:59.313Z,85
2023-03-07T06:03:06.365Z,85
2023-03-07T06:04:13.479Z,85
2023-03-07T06:05:20.524Z,85
2023-03-07T06:06:27.114Z,85
2023-03-07T06:07:34.273Z,85
2023-03-07T06:08:41.364Z,85
2023-03-07T06:09:48.393Z,85
2023-03-07T06:10:56.666Z,85
2023-03-07T06:12:02.180Z,85
2023-03-07T06:13:09.390Z,85
2023-03-07T06:14:16.373Z,84
2023-03-07T06:15:24.745Z,84
2023-03-07T06:16:30.588Z,84
2023-03-07T06:17:38.248Z,84
2023-03-07T06:18:44.375Z,84
2023-03-07T06:19:51.333Z,84
2023-03-07T06:20:58.500Z,84
2023-03-07T06:22:05.602Z,84
2023-03-07T06:23:13.370Z,84
2023-03-07T06:24:19.306Z,84
2023-03-07T06:25:26.382Z,84
2023-03-07T06:26:33.512Z,84
2023-03-07T06:27:40.533Z,84
2023-03-07T06:28:47.185Z,84
2023-03-07T06:29:54.311Z,84
2023-03-07T06:31:01.391Z,84
2023-03-07T06:32:08.572Z,84
2023-03-07T06:33:15.640Z,84
2023-03-07T06:34:22.236Z,84
2023-03-07T06:35:29.272Z,84
2023-03-07T06:36:36.398Z,84
2023-03-07T06:37:43.541Z,84
2023-03-07T06:38:50.677Z,84
2023-03-07T06:39:57.171Z,84
2023-03-07T06:42:11.369Z,84
2023-03-07T06:43:18.489Z,84
2023-03-07T06:44:25.596Z,84
2023-03-07T06:45:32.339Z,84
2023-03-07T06:46:39.234Z,84
2023-03-07T06:47:46.442Z,84
2023-03-07T06:50:00.605Z,84
2023-03-07T06:51:07.191Z,84
2023-03-07T06:52:14.289Z,84
2023-03-07T06:53:21.462Z,84
2023-03-07T06:54:28.498Z,84
2023-03-07T06:55:35.615Z,84
2023-03-07T06:56:44.879Z,84
2023-03-07T06:57:49.301Z,84
2023-03-07T06:58:56.501Z,84
2023-03-07T07:00:03.549Z,84
2023-03-07T07:01:10.632Z,84
2023-03-07T07:02:17.373Z,83
2023-03-07T07:03:24.346Z,84
2023-03-07T07:04:31.455Z,84
2023-03-07T07:05:38.603Z,84
2023-03-07T07:06:45.660Z,83
2023-03-07T07:07:52.770Z,83
2023-03-07T07:08:59.302Z,83
2023-03-07T07:10:06.424Z,84
2023-03-07T07:11:13.592Z,84
2023-03-07T07:12:20.638Z,84
2023-03-07T07:13:27.290Z,83
2023-03-07T07:14:34.395Z,84
2023-03-07T07:15:41.508Z,83
2023-03-07T07:16:48.589Z,83
2023-03-07T07:17:55.664Z,83
2023-03-07T07:19:02.322Z,83
2023-03-07T07:20:09.330Z,83
2023-03-07T07:21:16.526Z,84
2023-03-07T07:22:23.583Z,83
2023-03-07T07:23:30.729Z,83
2023-03-07T07:24:37.262Z,83
2023-03-07T07:25:44.367Z,83
2023-03-07T07:26:51.608Z,83
2023-03-07T07:27:58.548Z,83
2023-03-07T07:29:05.680Z,83
2023-03-07T07:30:12.223Z,83
2023-03-07T07:31:19.365Z,83
2023-03-07T07:32:26.805Z,83
2023-03-07T07:33:33.588Z,83
2023-03-07T07:34:41.472Z,83
2023-03-07T07:35:47.264Z,83
2023-03-07T07:36:54.351Z,83
2023-03-07T07:38:01.785Z,83
2023-03-07T07:39:08.743Z,84
2023-03-07T07:40:15.681Z,84
2023-03-07T07:41:22.258Z,84
2023-03-07T07:42:31.841Z,84
2023-03-07T07:43:36.563Z,84
2023-03-07T07:44:43.630Z,84
2023-03-07T07:45:50.190Z,84
2023-03-07T07:46:57.346Z,84
2023-03-07T07:48:04.436Z,84
2023-03-07T07:49:11.537Z,84
2023-03-07T07:50:18.536Z,84
2023-03-07T07:51:25.158Z,84
2023-03-07T07:52:32.266Z,84
2023-03-07T07:53:39.433Z,84
2023-03-07T07:54:46.572Z,84
2023-03-07T07:55:53.613Z,84
2023-03-07T07:57:00.185Z,84
2023-03-07T07:58:07.318Z,84
2023-03-07T07:59:14.456Z,84
2023-03-07T08:00:21.564Z,84
2023-03-07T08:01:28.609Z,84
2023-03-07T08:02:35.233Z,84
2023-03-07T08:03:42.418Z,84
2023-03-07T08:04:49.348Z,84
2023-03-07T08:05:56.564Z,84
2023-03-07T08:07:03.658Z,84
2023-03-07T08:08:10.242Z,84
2023-03-07T08:10:24.397Z,84
2023-03-07T08:11:31.548Z,84
2023-03-07T08:12:38.630Z,84
2023-03-07T08:13:45.316Z,84
2023-03-07T08:14:52.280Z,84
2023-03-07T08:15:59.601Z,84
2023-03-07T08:17:06.598Z,84
2023-03-07T08:18:13.702Z,84
2023-03-07T08:19:20.209Z,84
2023-03-07T08:20:27.413Z,84
2023-03-07T08:21:34.472Z,84
2023-03-07T08:22:41.576Z,84
2023-03-07T08:23:48.666Z,84
2023-03-07T08:24:55.181Z,84
2023-03-07T08:26:02.368Z,84
2023-03-07T08:27:09.460Z,84
2023-03-07T08:28:16.660Z,85
2023-03-07T08:29:23.592Z,85
2023-03-07T08:30:30.239Z,85
2023-03-07T08:31:37.310Z,85
2023-03-07T08:32:44.476Z,85
2023-03-07T08:33:51.572Z,85
2023-03-07T08:34:58.646Z,85
2023-03-07T08:36:05.342Z,85
2023-03-07T08:37:12.345Z,85
2023-03-07T08:38:19.398Z,85
2023-03-07T08:39:26.634Z,85
2023-03-07T08:40:33.692Z,85
2023-03-07T08:41:40.286Z,85
2023-03-07T08:42:47.319Z,85
2023-03-07T08:43:54.581Z,85
2023-03-07T08:45:01.585Z,85
2023-03-07T08:46:08.706Z,85
2023-03-07T08:47:15.286Z,85
2023-03-07T08:48:22.439Z,85
2023-03-07T08:49:29.509Z,85
2023-03-07T08:50:36.571Z,85
2023-03-07T08:51:43.674Z,85
2023-03-07T08:52:50.256Z,85
2023-03-07T08:53:57.358Z,85
2023-03-07T08:55:04.537Z,85
2023-03-07T08:56:11.649Z,85
2023-03-07T08:57:18.626Z,85
2023-03-07T08:58:25.339Z,86
2023-03-07T08:59:32.414Z,86
2023-03-07T09:00:39.471Z,86
2023-03-07T09:01:46.638Z,86
2023-03-07T09:02:53.744Z,86
2023-03-07T09:04:00.500Z,86
2023-03-07T09:05:07.416Z,85
2023-03-07T09:06:14.523Z,85
2023-03-07T09:07:21.554Z,85
2023-03-07T09:08:28.820Z,85
2023-03-07T09:09:35.358Z,85
2023-03-07T09:10:42.460Z,84
2023-03-07T09:11:49.453Z,84
2023-03-07T09:12:56.599Z,84
2023-03-07T09:14:03.751Z,84
2023-03-07T09:16:17.561Z,84
2023-03-07T09:17:24.541Z,84
2023-03-07T09:18:31.851Z,84
2023-03-07T09:19:38.755Z,84
2023-03-07T09:20:45.273Z,84
2023-03-07T09:21:52.387Z,84
2023-03-07T09:22:59.521Z,84
2023-03-07T09:24:06.635Z,84
2023-03-07T09:25:13.677Z,84
2023-03-07T09:26:20.338Z,84
2023-03-07T09:27:27.389Z,85
2023-03-07T09:28:34.583Z,85
2023-03-07T09:29:41.702Z,85
2023-03-07T09:30:48.775Z,85
2023-03-07T09:31:55.350Z,85
2023-03-07T09:33:02.394Z,85
2023-03-07T09:34:09.549Z,85
2023-03-07T09:35:16.754Z,85
2023-03-07T09:36:23.800Z,85
2023-03-07T09:38:37.514Z,85
2023-03-07T09:39:44.602Z,85
2023-03-07T09:40:51.619Z,85
2023-03-07T09:41:58.705Z,85
2023-03-07T09:43:05.405Z,85
2023-03-07T09:44:12.529Z,85
2023-03-07T09:45:19.586Z,85
2023-03-07T09:46:26.699Z,85
2023-03-07T09:47:33.841Z,85
2023-03-07T09:48:40.396Z,85
2023-03-07T09:49:47.458Z,85
2023-03-07T09:50:56.823Z,85
2023-03-07T09:52:01.780Z,85
2023-03-07T09:53:08.846Z,85
2023-03-07T09:54:15.441Z,85
2023-03-07T09:55:22.499Z,85
2023-03-07T09:56:29.565Z,85
2023-03-07T09:57:36.643Z,85
2023-03-07T09:58:43.853Z,85
2023-03-07T09:59:50.891Z,85
2023-03-07T10:00:57.576Z,85
2023-03-07T10:02:04.722Z,85
2023-03-07T10:03:11.812Z,85
2023-03-07T10:04:18.890Z,85
2023-03-07T10:05:25.420Z,85
2023-03-07T10:06:32.615Z,84
2023-03-07T10:07:39.518Z,84
2023-03-07T10:08:46.656Z,84
2023-03-07T10:09:53.764Z,83
2023-03-07T10:11:00.445Z,83
2023-03-07T10:12:07.523Z,83
2023-03-07T10:13:14.626Z,83
2023-03-07T10:14:21.828Z,83
2023-03-07T10:15:28.790Z,82
2023-03-07T10:16:35.600Z,82
2023-03-07T10:17:42.503Z,82
2023-03-07T10:19:56.813Z,82
2023-03-07T10:21:03.368Z,82
2023-03-07T10:22:10.362Z,82
2023-03-07T10:23:17.438Z,82
2023-03-07T10:24:24.564Z,82
2023-03-07T10:25:31.681Z,82
2023-03-07T10:26:38.768Z,82
2023-03-07T10:27:45.479Z,83
2023-03-07T10:28:52.532Z,82
2023-03-07T10:29:59.625Z,82
2023-03-07T10:31:06.754Z,82
2023-03-07T10:32:13.904Z,82
2023-03-07T10:33:20.722Z,82
2023-03-07T10:34:28.390Z,82
2023-03-07T10:35:34.743Z,82
2023-03-07T10:36:41.757Z,82
2023-03-07T10:37:48.849Z,82
2023-03-07T10:38:55.737Z,81
2023-03-07T10:40:04.870Z,81
2023-03-07T10:41:09.658Z,81
2023-03-07T10:42:16.943Z,80
2023-03-07T10:43:23.289Z,80
2023-03-07T10:44:30.420Z,80
2023-03-07T10:45:37.526Z,80
2023-03-07T10:46:55.318Z,80
2023-03-07T10:47:51.704Z,79
2023-03-07T10:48:58.935Z,79
2023-03-07T10:50:05.406Z,79
2023-03-07T10:51:12.581Z,79
2023-03-07T10:52:19.765Z,79
2023-03-07T10:53:26.913Z,78
2023-03-07T10:54:33.297Z,78
2023-03-07T10:55:40.555Z,78
2023-03-07T10:56:47.490Z,78
2023-03-07T10:57:55.474Z,78
2023-03-07T10:59:01.852Z,78
2023-03-07T11:00:08.526Z,77
2023-03-07T11:01:15.520Z,77
2023-03-07T11:02:22.582Z,77
2023-03-07T11:03:31.230Z,77
2023-03-07T11:04:36.801Z,77
2023-03-07T11:05:43.360Z,77
2023-03-07T11:06:50.383Z,77
2023-03-07T11:07:57.636Z,77
2023-03-07T11:09:04.998Z,77
2023-03-07T11:10:11.831Z,77
2023-03-07T11:11:18.291Z,77
2023-03-07T11:12:25.526Z,77
2023-03-07T11:13:32.577Z,76
2023-03-07T11:14:39.710Z,76
2023-03-07T11:15:46.972Z,76
2023-03-07T11:16:53.333Z,76
2023-03-07T11:18:00.466Z,76
2023-03-07T11:19:07.624Z,76
2023-03-07T11:20:14.730Z,75
2023-03-07T11:21:21.912Z,75
2023-03-07T11:23:35.804Z,75
2023-03-07T11:24:42.558Z,75
2023-03-07T11:25:49.612Z,74
2023-03-07T11:26:56.780Z,74
2023-03-07T11:28:03.569Z,74
2023-03-07T11:29:10.569Z,73
2023-03-07T11:30:17.526Z,73
2023-03-07T11:31:24.937Z,73
2023-03-07T11:32:32.076Z,73
2023-03-07T11:33:49.466Z,73
2023-03-07T11:34:45.563Z,73
2023-03-07T11:35:52.638Z,73
2023-03-07T11:36:59.673Z,73
2023-03-07T11:38:06.806Z,73
2023-03-07T11:39:13.534Z,73
2023-03-07T11:40:20.638Z,73
2023-03-07T11:41:27.746Z,73
2023-03-07T11:43:42.142Z,73
2023-03-07T11:44:48.404Z,73
2023-03-07T11:45:55.552Z,74
2023-03-07T11:47:02.770Z,74
2023-03-07T11:48:09.792Z,74
2023-03-07T11:49:20.105Z,74
2023-03-07T11:50:23.514Z,73
2023-03-07T11:51:30.447Z,74
2023-03-07T11:52:37.671Z,74
2023-03-07T11:53:44.806Z,73
2023-03-07T11:54:51.894Z,73
2023-03-07T11:55:58.540Z,73
2023-03-07T11:57:05.530Z,73
2023-03-07T11:58:12.643Z,73
2023-03-07T11:59:19.785Z,73
2023-03-07T12:00:26.402Z,73
2023-03-07T12:01:33.434Z,73
2023-03-07T12:02:40.561Z,73
2023-03-07T12:03:47.657Z,74
2023-03-07T12:04:54.839Z,74
2023-03-07T12:06:01.398Z,74
2023-03-07T12:07:08.521Z,74
2023-03-07T12:08:15.509Z,75
2023-03-07T12:09:22.573Z,75
2023-03-07T12:10:29.813Z,76
2023-03-07T12:11:36.336Z,76
2023-03-07T12:12:43.498Z,76
2023-03-07T12:13:50.542Z,77
2023-03-07T12:14:57.592Z,77
2023-03-07T12:16:04.865Z,77
2023-03-07T12:17:11.453Z,77
2023-03-07T12:18:18.494Z,77
2023-03-07T12:19:25.522Z,78
2023-03-07T12:20:32.667Z,78
2023-03-07T12:21:39.867Z,78
2023-03-07T12:22:46.868Z,78
2023-03-07T12:23:53.510Z,78
2023-03-07T12:25:00.528Z,78
2023-03-07T12:27:14.918Z,77
2023-03-07T12:28:21.356Z,77
2023-03-07T12:29:28.443Z,77
2023-03-07T12:30:35.541Z,77
2023-03-07T12:31:42.965Z,77
2023-03-07T12:32:49.932Z,77
2023-03-07T12:33:56.339Z,77
2023-03-07T12:35:03.472Z,78
2023-03-07T12:36:10.756Z,78
2023-03-07T12:37:17.632Z,78
2023-03-07T12:38:24.808Z,78
2023-03-07T12:39:31.322Z,78
2023-03-07T12:40:38.427Z,78
2023-03-07T12:41:45.638Z,78
2023-03-07T12:42:52.707Z,78
2023-03-07T12:43:59.868Z,78
2023-03-07T12:45:06.432Z,78
2023-03-07T12:46:13.512Z,78
2023-03-07T12:47:20.593Z,78
2023-03-07T12:48:27.809Z,78
2023-03-07T12:49:40.872Z,78
2023-03-07T12:50:41.376Z,78
2023-03-07T12:51:48.430Z,78
2023-03-07T12:52:55.632Z,78
2023-03-07T12:54:02.668Z,78
2023-03-07T12:55:09.831Z,78
2023-03-07T12:56:16.472Z,78
2023-03-07T12:57:25.665Z,77
2023-03-07T12:58:30.625Z,78
2023-03-07T12:59:37.682Z,78
2023-03-07T13:00:45.048Z,78
2023-03-07T13:01:51.426Z,78
2023-03-07T13:02:58.516Z,78
2023-03-07T13:04:05.840Z,78
2023-03-07T13:05:12.764Z,78
2023-03-07T13:06:19.822Z,78
2023-03-07T13:07:26.448Z,78
2023-03-07T13:08:33.686Z,78
2023-03-07T13:09:40.676Z,78
2023-03-07T13:11:54.798Z,78
2023-03-07T13:13:01.419Z,77
2023-03-07T13:14:08.503Z,77
2023-03-07T13:15:15.925Z,77
2023-03-07T13:16:22.734Z,77
2023-03-07T13:17:29.971Z,77
2023-03-07T13:18:36.488Z,77
2023-03-07T13:19:43.624Z,77
2023-03-07T13:20:50.628Z,77
2023-03-07T13:21:57.717Z,77
2023-03-07T13:23:04.922Z,77
2023-03-07T13:24:11.499Z,77
2023-03-07T13:25:18.510Z,77
2023-03-07T13:26:25.709Z,77
2023-03-07T13:27:32.191Z,77
2023-03-07T13:28:39.806Z,77
2023-03-07T13:30:56.756Z,77
2023-03-07T13:32:00.732Z,77
2023-03-07T13:33:07.742Z,77
2023-03-07T13:34:14.921Z,77
2023-03-07T13:35:21.426Z,77
2023-03-07T13:36:28.500Z,77
2023-03-07T13:37:37.343Z,76
2023-03-07T13:38:42.831Z,76
2023-03-07T13:39:49.879Z,76
2023-03-07T13:40:56.864Z,76
2023-03-07T13:42:03.608Z,75
2023-03-07T13:43:10.736Z,75
2023-03-07T13:44:17.751Z,74
2023-03-07T13:45:24.871Z,74
2023-03-07T13:46:31.705Z,74
2023-03-07T13:47:38.542Z,74
2023-03-07T13:48:45.709Z,74
2023-03-07T13:49:52.819Z,74
2023-03-07T13:50:59.848Z,74
2023-03-07T13:52:06.479Z,74
2023-03-07T13:53:13.593Z,74
2023-03-07T13:54:20.692Z,74
2023-03-07T13:55:27.760Z,74
2023-03-07T13:56:34.918Z,74
2023-03-07T13:57:41.453Z,74
2023-03-07T13:58:48.617Z,75
2023-03-07T13:59:55.736Z,75
2023-03-07T14:01:02.836Z,75
2023-03-07T14:02:09.825Z,75
2023-03-07T14:03:16.592Z,75
2023-03-07T14:04:36.977Z,75
2023-03-07T14:05:30.632Z,75
2023-03-07T14:06:37.814Z,76
2023-03-07T14:07:44.932Z,76
2023-03-07T14:08:51.648Z,76
2023-03-07T14:08:51.697Z,76
2023-03-07T14:09:58.604Z,76
2023-03-07T14:11:05.674Z,76
2023-03-07T14:12:12.922Z,76
2023-03-07T14:13:19.989Z,76
2023-03-07T14:14:26.496Z,76
2023-03-07T14:15:33.729Z,76
2023-03-07T14:16:40.705Z,76
2023-03-07T14:17:47.760Z,76
2023-03-07T14:18:54.480Z,76
2023-03-07T14:20:01.466Z,76
2023-03-07T14:21:08.646Z,76
2023-03-07T14:22:15.773Z,76
2023-03-07T14:23:22.919Z,76
2023-03-07T14:24:29.991Z,76
2023-03-07T14:25:36.935Z,76
2023-03-07T14:26:43.743Z,75
2023-03-07T14:27:51.214Z,75
2023-03-07T14:28:58.175Z,74
2023-03-07T14:30:04.391Z,74
2023-03-07T14:31:12.128Z,74
2023-03-07T14:32:18.629Z,74
2023-03-07T14:34:32.850Z,74
2023-03-07T14:35:39.513Z,74
2023-03-07T14:36:46.568Z,75
2023-03-07T14:37:53.665Z,75
2023-03-07T14:40:07.891Z,75
2023-03-07T14:41:14.419Z,76
2023-03-07T14:42:21.555Z,76
2023-03-07T14:43:28.646Z,76
2023-03-07T14:44:35.870Z,76
2023-03-07T14:45:42.924Z,76
2023-03-07T14:46:49.483Z,76
2023-03-07T14:47:56.558Z,76
2023-03-07T14:49:03.728Z,76
2023-03-07T14:50:10.226Z,76
2023-03-07T14:51:17.850Z,76
2023-03-07T14:52:30.946Z,76
2023-03-07T14:53:31.604Z,76
2023-03-07T14:54:38.626Z,76
2023-03-07T14:55:45.824Z,76
2023-03-07T14:56:52.894Z,76
2023-03-07T14:57:59.511Z,76
2023-03-07T14:59:08.487Z,76
2023-03-07T15:00:13.601Z,76
2023-03-07T15:01:20.984Z,76
2023-03-07T15:02:27.855Z,77
2023-03-07T15:03:34.449Z,77
2023-03-07T15:04:41.716Z,77
2023-03-07T15:05:48.664Z,77
2023-03-07T15:06:55.784Z,77
2023-03-07T15:08:02.856Z,77
2023-03-07T15:09:09.587Z,78
2023-03-07T15:10:16.610Z,78
2023-03-07T15:11:23.734Z,78
2023-03-07T15:12:30.757Z,78
2023-03-07T15:13:37.865Z,78
2023-03-07T15:14:44.492Z,78
2023-03-07T15:15:51.695Z,78
2023-03-07T15:16:58.658Z,78
2023-03-07T15:18:05.764Z,78
2023-03-07T15:19:12.875Z,78
2023-03-07T15:20:19.464Z,78
2023-03-07T15:21:26.631Z,78
2023-03-07T15:22:33.813Z,78
2023-03-07T15:23:40.808Z,78
2023-03-07T15:24:47.874Z,78
2023-03-07T15:25:54.564Z,78
2023-03-07T15:27:01.600Z,78
2023-03-07T15:28:08.686Z,78
2023-03-07T15:29:15.862Z,78
2023-03-07T15:30:22.936Z,78
2023-03-07T15:32:36.779Z,78
2023-03-07T15:33:43.768Z,79
2023-03-07T15:34:50.766Z,79
2023-03-07T15:35:57.939Z,79
2023-03-07T15:38:11.642Z,78
2023-03-07T15:39:18.734Z,78
2023-03-07T15:40:25.837Z,78
2023-03-07T15:41:32.959Z,78
2023-03-07T15:42:39.528Z,79
2023-03-07T15:43:46.588Z,79
2023-03-07T15:44:53.770Z,79
2023-03-07T15:46:00.880Z,79
2023-03-07T15:47:07.986Z,79
2023-03-07T15:48:14.493Z,79
2023-03-07T15:49:21.707Z,79
2023-03-07T15:50:28.729Z,79
2023-03-07T15:51:35.877Z,79
2023-03-07T15:52:42.981Z,79
2023-03-07T15:53:49.549Z,79
2023-03-07T15:54:56.649Z,79
2023-03-07T15:56:03.772Z,80
2023-03-07T15:57:10.805Z,79
2023-03-07T15:58:17.946Z,79
2023-03-07T15:59:24.566Z,79
2023-03-07T16:00:31.604Z,79
2023-03-07T16:01:38.837Z,79
2023-03-07T16:02:46.042Z,79
2023-03-07T16:03:53.318Z,80
2023-03-07T16:04:59.526Z,80
2023-03-07T16:06:06.645Z,80
2023-03-07T16:08:20.887Z,80
2023-03-07T16:09:28.094Z,80
2023-03-07T16:10:34.572Z,80
2023-03-07T16:11:41.722Z,79
2023-03-07T16:12:48.175Z,79
2023-03-07T16:13:55.911Z,79
2023-03-07T16:15:03.017Z,79
2023-03-07T16:16:09.683Z,79
2023-03-07T16:17:16.731Z,79
2023-03-07T16:18:23.843Z,79
2023-03-07T16:19:30.943Z,79
2023-03-07T16:20:37.918Z,79
2023-03-07T16:21:44.569Z,79
2023-03-07T16:22:51.628Z,79